YPTN

Tindal Airport

Airport
ICAO code
YPTN
IATA Code
KTR
Summary
ICAO Region
APAC
ICAO Territory
Location

Tindal, Northern Territory

Serving
Katherine
Elevation
443 ft
Coordinates
14° 31' 16" S , 132° 22' 41" E
Metar
Observation
YPTN 291930Z AUTO 18004KT 150V320 9999 // NCD 23/20 Q1009 RF00.0/000.0
Station
Tindal / Katherine
Date/Time
2023-03-29 19:30:00
Wind direction
180°
Wind speed
04 kts
Lowest cloud amount
no clouds detected
Temperature
23°C
Dew point
20°C
Humidity
83%
QNH
1009 hPa
Weather condition
n/a

Airport map

Aerial View

SKYbrary Partners:

Safety knowledge contributed by: